createdAt,value
2023-02-25T00:01:13.855Z,4.03
2023-02-25T00:03:42.041Z,3.20
2023-02-25T00:06:13.601Z,2.87
2023-02-25T00:08:45.677Z,2.65
2023-02-25T00:13:42.024Z,3.30
2023-02-25T00:16:10.209Z,3.53
2023-02-25T00:18:40.828Z,3.17
2023-02-25T00:21:15.304Z,3.27
2023-02-25T00:23:47.820Z,3.27
2023-02-25T00:26:16.656Z,3.20
2023-02-25T00:28:45.017Z,3.40
2023-02-25T00:31:18.181Z,3.90
2023-02-25T00:33:45.764Z,4.20
2023-02-25T00:36:18.935Z,2.90
2023-02-25T00:38:48.438Z,4.23
2023-02-25T00:41:18.905Z,4.03
2023-02-25T00:43:55.177Z,4.07
2023-02-25T00:46:23.308Z,3.30
2023-02-25T00:48:52.849Z,4.30
2023-02-25T00:51:25.583Z,4.23
2023-02-25T00:53:53.863Z,3.63
2023-02-25T00:56:21.658Z,3.50
2023-02-25T00:58:51.193Z,3.77
2023-02-25T01:01:31.034Z,4.03
2023-02-25T01:03:59.475Z,4.37
2023-02-25T01:06:28.826Z,3.43
2023-02-25T01:08:57.698Z,4.30
2023-02-25T01:11:31.948Z,3.47
2023-02-25T01:14:02.943Z,3.33
2023-02-25T01:16:32.410Z,3.70
2023-02-25T01:19:02.242Z,4.10
2023-02-25T01:21:35.030Z,3.63
2023-02-25T01:24:08.742Z,2.90
2023-02-25T01:26:37.887Z,3.40
2023-02-25T01:29:10.756Z,3.17
2023-02-25T01:31:38.501Z,3.03
2023-02-25T01:34:08.287Z,2.83
2023-02-25T01:36:35.620Z,2.33
2023-02-25T01:39:04.243Z,3.10
2023-02-25T01:41:33.530Z,3.37
2023-02-25T01:44:14.105Z,2.63
2023-02-25T01:46:43.685Z,2.40
2023-02-25T01:49:44.980Z,3.13
2023-02-25T01:52:23.341Z,2.40
2023-02-25T01:54:55.562Z,2.30
2023-02-25T01:57:24.708Z,3.90
2023-02-25T01:59:54.260Z,2.13
2023-02-25T02:02:24.582Z,2.10
2023-02-25T02:04:54.140Z,1.93
2023-02-25T02:07:24.612Z,2.17
2023-02-25T02:09:58.594Z,2.10
2023-02-25T02:12:32.686Z,1.83
2023-02-25T02:15:03.482Z,1.93
2023-02-25T02:17:42.370Z,2.57
2023-02-25T02:20:33.524Z,1.63
2023-02-25T02:23:32.588Z,2.23
2023-02-25T02:26:37.816Z,1.40
2023-02-25T02:29:45.345Z,2.10
2023-02-25T02:32:36.161Z,3.27
2023-02-25T02:35:51.236Z,1.73
2023-02-25T02:38:37.735Z,1.87
2023-02-25T02:41:23.770Z,1.70
2023-02-25T02:44:37.559Z,1.67
2023-02-25T02:47:12.796Z,2.70
2023-02-25T02:49:46.188Z,1.60
2023-02-25T02:52:23.259Z,1.60
2023-02-25T02:55:02.616Z,1.67
2023-02-25T02:57:32.518Z,1.43
2023-02-25T03:00:18.887Z,1.77
2023-02-25T03:03:04.221Z,1.20
2023-02-25T03:05:34.564Z,1.20
2023-02-25T03:08:10.118Z,1.30
2023-02-25T03:10:37.782Z,1.07
2023-02-25T03:13:06.131Z,1.27
2023-02-25T03:15:34.414Z,1.23
2023-02-25T03:18:08.006Z,0.97
2023-02-25T03:20:41.852Z,0.73
2023-02-25T03:23:22.001Z,0.70
2023-02-25T03:25:53.958Z,0.50
2023-02-25T03:28:32.547Z,0.47
2023-02-25T03:31:32.810Z,0.70
2023-02-25T03:34:19.214Z,0.67
2023-02-25T03:36:59.809Z,0.80
2023-02-25T03:39:30.979Z,0.77
2023-02-25T03:42:01.986Z,1.13
2023-02-25T03:44:36.187Z,0.60
2023-02-25T03:47:05.749Z,0.70
2023-02-25T03:49:38.900Z,1.33
2023-02-25T03:52:12.303Z,1.47
2023-02-25T03:54:39.805Z,0.67
2023-02-25T03:57:07.497Z,1.03
2023-02-25T03:59:34.857Z,1.10
2023-02-25T04:02:02.810Z,1.07
2023-02-25T04:04:30.318Z,0.60
2023-02-25T04:06:57.728Z,0.90
2023-02-25T04:09:25.462Z,0.87
2023-02-25T04:11:57.231Z,1.23
2023-02-25T04:14:24.933Z,1.00
2023-02-25T04:16:52.374Z,0.80
2023-02-25T04:19:19.733Z,0.80
2023-02-25T04:21:47.133Z,1.00
2023-02-25T04:24:14.416Z,1.20
2023-02-25T04:26:41.717Z,0.70
2023-02-25T04:29:09.133Z,0.70
2023-02-25T04:31:36.586Z,1.07
2023-02-25T04:34:03.930Z,0.67
2023-02-25T04:36:36.142Z,0.67
2023-02-25T04:39:05.616Z,1.23
2023-02-25T04:41:35.908Z,0.50
2023-02-25T04:44:04.543Z,1.27
2023-02-25T04:46:36.436Z,0.43
2023-02-25T04:51:31.464Z,0.30
2023-02-25T04:53:58.778Z,0.47
2023-02-25T04:56:26.337Z,0.70
2023-02-25T04:58:54.045Z,0.70
2023-02-25T05:01:21.470Z,0.47
2023-02-25T05:03:49.017Z,0.60
2023-02-25T05:06:16.280Z,0.50
2023-02-25T05:08:43.605Z,0.47
2023-02-25T05:11:10.870Z,1.07
2023-02-25T05:13:38.169Z,0.70
2023-02-25T05:16:07.763Z,0.80
2023-02-25T05:18:42.536Z,0.70
2023-02-25T05:21:12.247Z,0.60
2023-02-25T05:23:40.767Z,0.90
2023-02-25T05:26:09.259Z,0.60
2023-02-25T05:28:37.414Z,1.30
2023-02-25T05:31:09.185Z,0.90
2023-02-25T05:33:38.110Z,0.65
2023-02-25T05:36:10.249Z,0.90
2023-02-25T05:38:38.090Z,0.90
2023-02-25T05:41:06.508Z,0.70
2023-02-25T05:43:34.808Z,0.83
2023-02-25T05:46:03.253Z,0.97
2023-02-25T05:48:33.613Z,0.70
2023-02-25T05:51:03.469Z,0.60
2023-02-25T05:53:31.221Z,0.77
2023-02-25T05:55:58.526Z,0.60
2023-02-25T05:58:25.953Z,0.77
2023-02-25T06:00:54.030Z,0.90
2023-02-25T06:03:21.407Z,0.60
2023-02-25T06:05:48.869Z,1.20
2023-02-25T06:08:16.350Z,1.20
2023-02-25T06:10:43.694Z,1.20
2023-02-25T06:13:12.084Z,1.33
2023-02-25T06:15:41.839Z,1.10
2023-02-25T06:18:10.087Z,1.10
2023-02-25T06:20:37.346Z,1.70
2023-02-25T06:23:05.094Z,1.50
2023-02-25T06:25:32.461Z,1.30
2023-02-25T06:28:01.059Z,1.43
2023-02-25T06:30:29.974Z,1.63
2023-02-25T06:32:58.099Z,1.43
2023-02-25T06:35:25.413Z,1.77
2023-02-25T06:37:57.845Z,2.03
2023-02-25T06:40:25.833Z,2.07
2023-02-25T06:42:53.110Z,1.90
2023-02-25T06:45:21.057Z,2.20
2023-02-25T06:47:48.347Z,1.60
2023-02-25T06:50:16.100Z,2.10
2023-02-25T06:52:44.035Z,1.47
2023-02-25T06:55:11.508Z,2.47
2023-02-25T06:57:38.822Z,1.77
2023-02-25T07:00:07.064Z,2.37
2023-02-25T07:02:34.392Z,1.70
2023-02-25T07:05:02.946Z,2.60
2023-02-25T07:07:30.311Z,1.67
2023-02-25T07:09:57.621Z,2.07
2023-02-25T07:12:25.035Z,1.87
2023-02-25T07:14:52.432Z,1.60
2023-02-25T07:17:19.799Z,2.40
2023-02-25T07:19:47.148Z,1.50
2023-02-25T07:22:16.516Z,1.63
2023-02-25T07:24:44.472Z,1.40
2023-02-25T07:27:14.888Z,1.40
2023-02-25T07:29:42.307Z,1.67
2023-02-25T07:32:09.754Z,1.03
2023-02-25T07:34:40.289Z,0.70
2023-02-25T07:37:07.577Z,1.43
2023-02-25T07:39:34.926Z,1.33
2023-02-25T07:42:02.205Z,1.13
2023-02-25T07:44:29.526Z,0.97
2023-02-25T07:46:56.807Z,1.10
2023-02-25T07:49:24.132Z,1.03
2023-02-25T07:51:51.380Z,0.90
2023-02-25T07:54:21.237Z,1.13
2023-02-25T07:56:51.415Z,1.07
2023-02-25T07:59:19.312Z,1.20
2023-02-25T08:01:46.944Z,0.97
2023-02-25T08:04:14.291Z,1.40
2023-02-25T08:06:42.467Z,1.57
2023-02-25T08:09:13.868Z,2.23
2023-02-25T08:11:41.551Z,1.42
2023-02-25T08:14:08.855Z,1.77
2023-02-25T08:16:37.609Z,1.20
2023-02-25T08:19:06.093Z,1.13
2023-02-25T08:21:33.759Z,1.23
2023-02-25T08:24:01.047Z,1.20
2023-02-25T08:26:28.673Z,1.40
2023-02-25T08:28:56.670Z,1.00
2023-02-25T08:31:24.770Z,1.50
2023-02-25T08:33:53.010Z,1.10
2023-02-25T08:36:23.207Z,1.40
2023-02-25T08:38:51.356Z,1.30
2023-02-25T08:41:20.734Z,1.27
2023-02-25T08:43:54.871Z,1.50
2023-02-25T08:46:23.830Z,1.07
2023-02-25T08:48:53.007Z,0.90
2023-02-25T08:51:22.236Z,1.00
2023-02-25T08:53:50.633Z,0.90
2023-02-25T08:56:18.236Z,0.97
2023-02-25T08:58:45.587Z,1.20
2023-02-25T09:01:16.300Z,1.00
2023-02-25T09:03:51.324Z,0.77
2023-02-25T09:06:21.074Z,0.70
2023-02-25T09:08:48.820Z,0.80
2023-02-25T09:11:16.494Z,0.40
2023-02-25T09:13:43.826Z,0.60
2023-02-25T09:16:11.601Z,0.50
2023-02-25T09:18:38.875Z,0.40
2023-02-25T09:21:06.327Z,0.43
2023-02-25T09:23:33.733Z,0.50
2023-02-25T09:26:05.692Z,0.60
2023-02-25T09:31:02.640Z,0.40
2023-02-25T09:33:32.453Z,0.50
2023-02-25T09:36:12.526Z,0.43
2023-02-25T09:38:41.390Z,0.33
2023-02-25T09:41:44.233Z,0.80
2023-02-25T09:44:24.789Z,0.30
2023-02-25T09:47:26.789Z,0.40
2023-02-25T09:50:13.598Z,0.57
2023-02-25T09:52:53.883Z,0.40
2023-02-25T09:55:32.962Z,0.60
2023-02-25T09:58:40.951Z,0.50
2023-02-25T10:01:34.947Z,0.77
2023-02-25T10:04:27.659Z,0.60
2023-02-25T10:06:56.178Z,0.33
2023-02-25T10:09:54.028Z,0.40
2023-02-25T10:12:51.428Z,0.63
2023-02-25T10:16:03.183Z,0.30
2023-02-25T10:18:51.768Z,0.40
2023-02-25T10:21:56.489Z,0.40
2023-02-25T10:24:34.743Z,0.63
2023-02-25T10:27:33.065Z,0.80
2023-02-25T10:30:07.625Z,0.40
2023-02-25T10:32:37.277Z,0.40
2023-02-25T10:35:26.841Z,0.50
2023-02-25T10:37:54.288Z,0.40
2023-02-25T10:40:24.534Z,0.67
2023-02-25T10:42:54.557Z,0.30
2023-02-25T10:45:30.596Z,0.67
2023-02-25T10:48:16.386Z,0.60
2023-02-25T10:50:46.325Z,0.80
2023-02-25T10:53:16.429Z,0.40
2023-02-25T10:55:52.286Z,0.30
2023-02-25T10:58:41.478Z,0.60
2023-02-25T11:01:21.346Z,0.40
2023-02-25T11:04:02.735Z,0.70
2023-02-25T11:06:37.909Z,0.47
2023-02-25T11:09:29.353Z,0.80
2023-02-25T11:12:09.321Z,0.63
2023-02-25T11:14:38.332Z,0.80
2023-02-25T11:17:12.338Z,0.87
2023-02-25T11:19:46.787Z,0.40
2023-02-25T11:22:29.696Z,0.50
2023-02-25T11:25:00.903Z,0.90
2023-02-25T11:27:39.910Z,1.02
2023-02-25T11:30:27.170Z,1.70
2023-02-25T11:32:57.938Z,1.50
2023-02-25T11:35:31.335Z,1.37
2023-02-25T11:38:12.159Z,1.00
2023-02-25T11:40:45.055Z,1.63
2023-02-25T11:43:32.146Z,1.83
2023-02-25T11:46:01.946Z,1.63
2023-02-25T11:48:45.203Z,2.30
2023-02-25T11:51:34.547Z,1.00
2023-02-25T11:54:36.072Z,1.17
2023-02-25T11:57:55.727Z,1.17
2023-02-25T12:00:53.716Z,0.90
2023-02-25T12:04:02.396Z,1.07
2023-02-25T12:07:07.410Z,0.80
2023-02-25T12:10:08.140Z,0.87
2023-02-25T12:13:04.508Z,1.00
2023-02-25T12:16:08.205Z,0.90
2023-02-25T12:19:20.661Z,0.80
2023-02-25T12:22:26.943Z,1.00
2023-02-25T12:25:14.257Z,0.90
2023-02-25T12:34:55.904Z,0.70
2023-02-25T13:19:02.861Z,0.67
2023-02-25T13:37:52.917Z,0.60
2023-02-25T13:59:58.420Z,0.40
2023-02-25T14:03:02.719Z,0.40
2023-02-25T14:05:54.138Z,0.47
2023-02-25T14:46:40.373Z,0.10
2023-02-25T14:49:33.356Z,0.20
2023-02-25T14:52:34.828Z,0.30
2023-02-25T14:55:37.425Z,0.33
2023-02-25T14:58:45.460Z,0.30
2023-02-25T15:01:44.336Z,0.30
2023-02-25T15:04:38.144Z,0.20
2023-02-25T15:07:15.181Z,0.30
2023-02-25T15:10:20.973Z,0.37
2023-02-25T15:13:25.499Z,0.30
2023-02-25T15:22:21.444Z,0.37
2023-02-25T15:24:49.714Z,0.30
2023-02-25T15:27:56.616Z,0.40
2023-02-25T15:30:26.859Z,0.40
2023-02-25T15:32:58.143Z,0.47
2023-02-25T15:35:58.180Z,0.38
2023-02-25T15:38:48.952Z,0.40
2023-02-25T15:41:44.744Z,0.47
2023-02-25T15:44:12.015Z,0.40
2023-02-25T15:46:49.241Z,0.20
2023-02-25T15:49:37.809Z,0.30
2023-02-25T15:52:06.501Z,0.20
2023-02-25T15:54:54.062Z,0.20
2023-02-25T15:57:21.243Z,0.20
2023-02-25T15:59:57.642Z,0.53
2023-02-25T16:02:33.640Z,0.27
2023-02-25T16:05:33.259Z,0.20
2023-02-25T16:08:17.197Z,0.23
2023-02-25T16:10:48.291Z,0.20
2023-02-25T16:13:23.504Z,0.25
2023-02-25T16:15:55.470Z,0.37
2023-02-25T16:20:52.914Z,0.30
2023-02-25T16:23:20.487Z,0.20
2023-02-25T16:26:19.767Z,0.40
2023-02-25T16:29:40.000Z,0.40
2023-02-25T16:32:25.617Z,0.20
2023-02-25T16:35:02.722Z,0.37
2023-02-25T16:37:46.259Z,0.40
2023-02-25T16:40:19.469Z,0.57
2023-02-25T16:42:46.884Z,0.70
2023-02-25T16:45:28.352Z,0.67
2023-02-25T16:47:59.767Z,0.55
2023-02-25T16:50:31.652Z,0.50
2023-02-25T16:53:00.895Z,0.80
2023-02-25T16:55:35.650Z,0.60
2023-02-25T16:58:20.840Z,0.37
2023-02-25T17:00:54.085Z,0.80
2023-02-25T17:03:24.326Z,0.63
2023-02-25T17:06:07.416Z,0.30
2023-02-25T17:08:35.595Z,0.40
2023-02-25T17:11:05.270Z,0.27
2023-02-25T17:13:36.479Z,0.40
2023-02-25T17:16:05.132Z,0.50
2023-02-25T17:18:45.241Z,0.50
2023-02-25T17:21:40.029Z,0.50
2023-02-25T17:24:13.537Z,0.30
2023-02-25T17:26:47.289Z,0.20
2023-02-25T17:29:16.855Z,0.40
2023-02-25T17:31:47.752Z,0.20
2023-02-25T17:34:25.642Z,0.17
2023-02-25T17:36:55.456Z,0.23
2023-02-25T17:39:23.031Z,0.20
2023-02-25T17:41:50.824Z,0.30
2023-02-25T17:44:50.316Z,0.93
2023-02-25T17:47:25.565Z,0.30
2023-02-25T17:49:54.629Z,0.30
2023-02-25T17:52:25.717Z,0.20
2023-02-25T17:55:27.271Z,0.35
2023-02-25T17:57:59.427Z,0.40
2023-02-25T18:00:31.950Z,0.47
2023-02-25T18:03:24.602Z,0.60
2023-02-25T18:05:54.624Z,0.50
2023-02-25T18:08:32.010Z,0.50
2023-02-25T18:11:38.062Z,0.40
2023-02-25T18:14:25.405Z,1.40
2023-02-25T18:16:53.583Z,2.27
2023-02-25T18:19:32.728Z,2.13
2023-02-25T18:22:00.231Z,1.10
2023-02-25T18:24:34.447Z,1.00
2023-02-25T18:27:32.336Z,1.20
2023-02-25T18:30:18.228Z,0.93
2023-02-25T18:32:46.955Z,0.70
2023-02-25T18:35:15.210Z,0.97
2023-02-25T18:37:44.550Z,1.20
2023-02-25T18:40:16.937Z,0.77
2023-02-25T18:42:44.230Z,1.63
2023-02-25T18:45:21.080Z,1.40
2023-02-25T18:47:49.625Z,1.17
2023-02-25T18:50:17.575Z,1.33
2023-02-25T18:52:44.976Z,1.27
2023-02-25T18:55:21.790Z,0.90
2023-02-25T18:57:49.172Z,1.90
2023-02-25T19:00:18.983Z,0.90
2023-02-25T19:02:57.382Z,0.67
2023-02-25T19:05:25.785Z,1.07
2023-02-25T19:07:53.490Z,0.60
2023-02-25T19:10:27.740Z,0.90
2023-02-25T19:13:03.184Z,0.50
2023-02-25T19:15:31.269Z,0.60
2023-02-25T19:17:58.562Z,1.00
2023-02-25T19:20:25.878Z,1.07
2023-02-25T19:22:53.511Z,0.50
2023-02-25T19:25:30.418Z,0.70
2023-02-25T19:27:58.285Z,1.10
2023-02-25T19:30:29.327Z,0.70
2023-02-25T19:33:02.876Z,0.73
2023-02-25T19:35:34.729Z,0.70
2023-02-25T19:38:02.558Z,0.33
2023-02-25T19:40:30.272Z,0.50
2023-02-25T19:42:58.699Z,0.50
2023-02-25T19:45:27.596Z,0.40
2023-02-25T19:47:55.201Z,0.60
2023-02-25T19:50:24.858Z,0.70
2023-02-25T19:52:54.102Z,0.57
2023-02-25T19:55:21.667Z,0.90
2023-02-25T19:57:49.085Z,1.10
2023-02-25T20:00:19.935Z,1.40
2023-02-25T20:02:47.436Z,1.60
2023-02-25T20:05:15.023Z,2.33
2023-02-25T20:07:43.220Z,1.67
2023-02-25T20:10:15.157Z,1.63
2023-02-25T20:12:43.896Z,1.15
2023-02-25T20:15:13.081Z,2.47
2023-02-25T20:17:42.184Z,3.80
2023-02-25T20:20:10.986Z,2.33
2023-02-25T20:22:39.235Z,1.03
2023-02-25T20:25:08.528Z,1.87
2023-02-25T20:27:37.207Z,1.83
2023-02-25T20:30:06.795Z,0.70
2023-02-25T20:32:34.809Z,0.90
2023-02-25T20:35:02.583Z,1.37
2023-02-25T20:37:37.290Z,1.00
2023-02-25T20:40:11.956Z,0.80
2023-02-25T20:42:39.611Z,0.80
2023-02-25T20:45:08.084Z,2.27
2023-02-25T20:47:36.494Z,1.17
2023-02-25T20:50:06.256Z,0.60
2023-02-25T20:52:34.097Z,0.70
2023-02-25T20:55:01.398Z,1.23
2023-02-25T20:57:28.912Z,0.60
2023-02-25T20:59:56.251Z,0.80
2023-02-25T21:02:23.622Z,0.80
2023-02-25T21:04:51.952Z,0.63
2023-02-25T21:07:19.299Z,1.10
2023-02-25T21:09:47.069Z,1.20
2023-02-25T21:12:14.379Z,1.30
2023-02-25T21:14:41.667Z,1.77
2023-02-25T21:17:13.723Z,0.53
2023-02-25T21:19:41.164Z,0.70
2023-02-25T21:22:08.616Z,1.43
2023-02-25T21:24:36.795Z,1.00
2023-02-25T21:27:04.306Z,0.57
2023-02-25T21:29:32.527Z,0.80
2023-02-25T21:31:59.929Z,0.80
2023-02-25T21:34:27.470Z,0.60
2023-02-25T21:36:58.322Z,0.80
2023-02-25T21:39:26.405Z,0.73
2023-02-25T21:41:53.820Z,0.63
2023-02-25T21:44:21.369Z,0.50
2023-02-25T21:46:48.664Z,0.60
2023-02-25T21:49:16.060Z,0.63
2023-02-25T21:51:43.511Z,1.07
2023-02-25T21:54:10.876Z,0.87
2023-02-25T21:56:38.300Z,0.70
2023-02-25T21:59:06.021Z,0.70
2023-02-25T22:01:36.681Z,0.40
2023-02-25T22:04:04.722Z,0.47
2023-02-25T22:06:32.395Z,0.80
2023-02-25T22:09:00.050Z,0.70
2023-02-25T22:11:33.001Z,0.70
2023-02-25T22:14:02.919Z,0.40
2023-02-25T22:16:30.203Z,0.60
2023-02-25T22:18:58.706Z,0.80
2023-02-25T22:21:30.984Z,1.03
2023-02-25T22:24:00.931Z,0.93
2023-02-25T22:26:31.602Z,0.80
2023-02-25T22:29:01.889Z,1.03
2023-02-25T22:31:29.330Z,0.67
2023-02-25T22:33:58.132Z,1.23
2023-02-25T22:36:25.882Z,1.10
2023-02-25T22:38:53.864Z,1.40
2023-02-25T22:41:23.807Z,0.50
2023-02-25T22:43:51.720Z,3.30
2023-02-25T22:46:22.161Z,0.90
2023-02-25T22:48:50.710Z,0.90
2023-02-25T22:51:21.535Z,1.20
2023-02-25T22:53:48.868Z,1.43
2023-02-25T22:56:16.241Z,1.17
2023-02-25T22:58:43.683Z,2.10
2023-02-25T23:01:13.338Z,0.80
2023-02-25T23:03:43.709Z,0.83
2023-02-25T23:06:15.892Z,0.80
2023-02-25T23:08:44.100Z,0.50
2023-02-25T23:11:20.848Z,1.70
2023-02-25T23:13:53.716Z,1.00
2023-02-25T23:16:28.332Z,0.43
2023-02-25T23:19:00.699Z,0.77
2023-02-25T23:21:29.476Z,0.40
2023-02-25T23:23:58.678Z,0.80
2023-02-25T23:26:28.738Z,1.60
2023-02-25T23:28:58.187Z,0.67
2023-02-25T23:31:28.386Z,0.60
2023-02-25T23:33:57.411Z,0.80
2023-02-25T23:36:26.029Z,1.00
2023-02-25T23:38:59.083Z,0.53
2023-02-25T23:41:27.625Z,0.40
2023-02-25T23:43:57.121Z,0.60
2023-02-25T23:46:26.344Z,0.50
2023-02-25T23:48:58.822Z,0.60
2023-02-25T23:51:26.775Z,0.60
2023-02-25T23:53:55.938Z,1.03
2023-02-25T23:56:24.329Z,0.70
2023-02-25T23:58:53.747Z,1.00
